createdAt,value
2022-10-11T00:01:17.408Z,102589.31
2022-10-11T00:03:43.909Z,102591.59
2022-10-11T00:06:10.469Z,102589.78
2022-10-11T00:08:37.093Z,102594.03
2022-10-11T00:11:06.713Z,102590.63
2022-10-11T00:13:33.486Z,102592.06
2022-10-11T00:16:00.141Z,102588.97
2022-10-11T00:18:26.632Z,102593.53
2022-10-11T00:21:12.591Z,102592.53
2022-10-11T00:23:40.021Z,102594.03
2022-10-11T00:26:09.935Z,102599.72
2022-10-11T00:28:37.177Z,102603.16
2022-10-11T00:31:08.017Z,102588.28
2022-10-11T00:33:34.977Z,102604.63
2022-10-11T00:36:01.929Z,102604.47
2022-10-11T00:38:31.874Z,102608.88
2022-10-11T00:40:59.191Z,102609.22
2022-10-11T00:43:27.712Z,102606.09
2022-10-11T00:46:24.882Z,102613.44
2022-10-11T00:49:01.077Z,102620.09
2022-10-11T00:51:37.607Z,102625.16
2022-10-11T00:54:06.071Z,102611.41
2022-10-11T00:56:38.940Z,102624.44
2022-10-11T00:59:12.330Z,102624.81
2022-10-11T01:01:38.949Z,102625.09
2022-10-11T01:04:06.009Z,102627.38
2022-10-11T01:06:34.040Z,102630.13
2022-10-11T01:09:00.473Z,102629.63
2022-10-11T01:11:29.762Z,102641.22
2022-10-11T01:14:40.890Z,102638.44
2022-10-11T01:17:13.885Z,102642.84
2022-10-11T01:20:04.424Z,102643.31
2022-10-11T01:22:33.840Z,102641.97
2022-10-11T01:25:16.031Z,102642.13
2022-10-11T01:28:04.274Z,102642.13
2022-10-11T01:30:34.142Z,102644.91
2022-10-11T01:33:13.100Z,102644.38
2022-10-11T01:36:06.478Z,102645.50
2022-10-11T01:38:45.837Z,102651.75
2022-10-11T01:41:23.589Z,102647.97
2022-10-11T01:43:54.423Z,102650.44
2022-10-11T01:46:21.751Z,102646.69
2022-10-11T01:48:53.322Z,102646.97
2022-10-11T01:51:24.254Z,102653.19
2022-10-11T01:54:02.608Z,102648.63
2022-10-11T01:56:44.166Z,102657.94
2022-10-11T01:59:48.401Z,102652.72
2022-10-11T02:02:20.917Z,102644.53
2022-10-11T02:04:54.435Z,102652.81
2022-10-11T02:07:53.189Z,102658.84
2022-10-11T02:10:41.782Z,102662.59
2022-10-11T02:13:23.422Z,102651.19
2022-10-11T02:15:52.312Z,102655.56
2022-10-11T02:18:23.486Z,102656.69
2022-10-11T02:20:51.891Z,102655.56
2022-10-11T02:23:29.745Z,102648.88
2022-10-11T02:25:57.714Z,102651.34
2022-10-11T02:28:29.679Z,102652.31
2022-10-11T02:30:58.130Z,102649.34
2022-10-11T02:33:31.706Z,102662.84
2022-10-11T02:36:05.926Z,102659.41
2022-10-11T02:38:40.094Z,102660.69
2022-10-11T02:41:23.230Z,102660.84
2022-10-11T02:43:57.571Z,102665.09
2022-10-11T02:46:26.425Z,102655.63
2022-10-11T02:48:53.867Z,102660.97
2022-10-11T02:51:20.338Z,102672.41
2022-10-11T02:53:46.760Z,102667.34
2022-10-11T02:56:13.198Z,102672.56
2022-10-11T02:58:39.602Z,102665.06
2022-10-11T03:01:06.453Z,102668.63
2022-10-11T03:03:32.902Z,102676.31
2022-10-11T03:06:03.957Z,102672.72
2022-10-11T03:08:31.468Z,102677.78
2022-10-11T03:10:58.112Z,102672.41
2022-10-11T03:13:24.600Z,102675.81
2022-10-11T03:16:07.365Z,102682.00
2022-10-11T03:18:34.030Z,102675.66
2022-10-11T03:21:00.457Z,102679.09
2022-10-11T03:23:27.022Z,102679.09
2022-10-11T03:25:53.537Z,102672.56
2022-10-11T03:28:20.975Z,102674.00
2022-10-11T03:30:48.499Z,102678.41
2022-10-11T03:33:15.170Z,102683.91
2022-10-11T03:35:44.774Z,102681.47
2022-10-11T03:38:16.684Z,102684.38
2022-10-11T03:40:44.034Z,102691.88
2022-10-11T03:43:10.948Z,102686.81
2022-10-11T03:45:37.760Z,102687.63
2022-10-11T03:48:04.602Z,102697.13
2022-10-11T03:50:31.264Z,102699.72
2022-10-11T03:52:58.307Z,102703.16
2022-10-11T03:55:24.760Z,102710.31
2022-10-11T03:57:51.169Z,102705.69
2022-10-11T04:00:17.802Z,102694.72
2022-10-11T04:02:44.443Z,102707.31
2022-10-11T04:05:12.579Z,102708.44
2022-10-11T04:07:39.625Z,102710.22
2022-10-11T04:10:07.197Z,102704.34
2022-10-11T04:12:34.682Z,102711.03
2022-10-11T04:15:01.146Z,102714.47
2022-10-11T04:17:27.594Z,102707.78
2022-10-11T04:19:54.043Z,102706.56
2022-10-11T04:22:20.475Z,102705.75
2022-10-11T04:24:46.918Z,102718.94
2022-10-11T04:27:13.341Z,102726.91
2022-10-11T04:29:39.743Z,102726.41
2022-10-11T04:32:06.302Z,102727.69
2022-10-11T04:34:32.725Z,102729.47
2022-10-11T04:36:59.190Z,102733.63
2022-10-11T04:39:25.614Z,102736.53
2022-10-11T04:41:52.102Z,102738.84
2022-10-11T04:44:18.494Z,102735.81
2022-10-11T04:46:44.889Z,102734.41
2022-10-11T04:49:11.351Z,102740.63
2022-10-11T04:51:37.962Z,102739.50
2022-10-11T04:54:04.468Z,102739.50
2022-10-11T04:56:30.891Z,102741.00
2022-10-11T04:58:57.388Z,102747.28
2022-10-11T05:01:23.839Z,102749.97
2022-10-11T05:03:50.300Z,102743.47
2022-10-11T05:06:16.895Z,102745.78
2022-10-11T05:08:43.380Z,102744.66
2022-10-11T05:11:16.195Z,102747.44
2022-10-11T05:13:43.353Z,102746.44
2022-10-11T05:16:11.409Z,102750.88
2022-10-11T05:18:38.974Z,102746.44
2022-10-11T05:21:17.863Z,102748.06
2022-10-11T05:23:45.197Z,102753.97
2022-10-11T05:26:11.694Z,102747.25
2022-10-11T05:28:38.185Z,102747.34
2022-10-11T05:31:05.466Z,102753.16
2022-10-11T05:33:32.308Z,102761.59
2022-10-11T05:35:58.763Z,102764.19
2022-10-11T05:38:25.165Z,102768.72
2022-10-11T05:40:52.125Z,102769.41
2022-10-11T05:43:18.803Z,102761.72
2022-10-11T05:45:46.431Z,102758.69
2022-10-11T05:48:13.088Z,102774.03
2022-10-11T05:50:39.611Z,102773.75
2022-10-11T05:53:06.493Z,102768.81
2022-10-11T05:55:40.972Z,102779.56
2022-10-11T05:58:09.787Z,102778.88
2022-10-11T06:00:37.965Z,102786.03
2022-10-11T06:03:08.524Z,102778.06
2022-10-11T06:05:35.539Z,102781.34
2022-10-11T06:08:02.639Z,102786.94
2022-10-11T06:10:29.481Z,102786.13
2022-10-11T06:12:55.913Z,102785.81
2022-10-11T06:15:22.504Z,102784.56
2022-10-11T06:17:48.958Z,102789.19
2022-10-11T06:20:15.787Z,102792.28
2022-10-11T06:22:42.660Z,102799.16
2022-10-11T06:25:09.407Z,102796.09
2022-10-11T06:27:35.932Z,102792.38
2022-10-11T06:30:02.842Z,102798.34
2022-10-11T06:32:29.276Z,102799.91
2022-10-11T06:34:55.766Z,102805.97
2022-10-11T06:37:22.208Z,102799.84
2022-10-11T06:39:50.300Z,102808.28
2022-10-11T06:42:17.229Z,102809.78
2022-10-11T06:44:43.683Z,102806.94
2022-10-11T06:47:10.200Z,102812.41
2022-10-11T06:49:36.686Z,102820.28
2022-10-11T06:52:03.164Z,102816.38
2022-10-11T06:54:29.665Z,102818.03
2022-10-11T06:56:56.080Z,102816.22
2022-10-11T06:59:22.519Z,102817.56
2022-10-11T07:01:48.940Z,102825.91
2022-10-11T07:04:15.390Z,102833.13
2022-10-11T07:06:42.026Z,102827.28
2022-10-11T07:09:09.019Z,102828.63
2022-10-11T07:11:36.029Z,102837.75
2022-10-11T07:14:07.653Z,102831.25
2022-10-11T07:16:37.652Z,102829.47
2022-10-11T07:19:05.591Z,102833.78
2022-10-11T07:21:33.610Z,102838.88
2022-10-11T07:24:00.673Z,102845.28
2022-10-11T07:26:28.095Z,102842.53
2022-10-11T07:28:54.694Z,102846.94
2022-10-11T07:31:24.194Z,102851.06
2022-10-11T07:33:50.944Z,102845.84
2022-10-11T07:36:17.536Z,102846.34
2022-10-11T07:38:46.236Z,102843.72
2022-10-11T07:41:13.907Z,102841.94
2022-10-11T07:43:40.560Z,102844.56
2022-10-11T07:46:07.775Z,102849.94
2022-10-11T07:48:36.237Z,102845.81
2022-10-11T07:51:11.918Z,102846.81
2022-10-11T07:53:49.791Z,102852.38
2022-10-11T07:56:19.806Z,102857.13
2022-10-11T07:58:53.953Z,102862.53
2022-10-11T08:01:20.848Z,102862.03
2022-10-11T08:03:48.218Z,102865.78
2022-10-11T08:06:22.909Z,102865.72
2022-10-11T08:08:49.617Z,102874.25
2022-10-11T08:11:36.670Z,102871.75
2022-10-11T08:14:08.360Z,102868.72
2022-10-11T08:16:36.128Z,102880.66
2022-10-11T08:19:03.374Z,102887.81
2022-10-11T08:21:30.722Z,102887.06
2022-10-11T08:23:57.398Z,102888.16
2022-10-11T08:26:24.494Z,102883.75
2022-10-11T08:28:51.020Z,102886.47
2022-10-11T08:31:17.528Z,102886.97
2022-10-11T08:33:44.338Z,102885.84
2022-10-11T08:36:11.573Z,102880.81
2022-10-11T08:38:39.005Z,102888.25
2022-10-11T08:41:25.548Z,102884.56
2022-10-11T08:44:06.343Z,102888.75
2022-10-11T08:46:35.195Z,102894.53
2022-10-11T08:49:02.430Z,102900.63
2022-10-11T08:51:52.523Z,102896.53
2022-10-11T08:54:32.107Z,102897.50
2022-10-11T08:57:00.476Z,102903.94
2022-10-11T08:59:36.680Z,102896.38
2022-10-11T09:03:07.084Z,102908.06
2022-10-11T09:05:54.479Z,102903.19
2022-10-11T09:08:31.328Z,102895.78
2022-10-11T09:11:19.427Z,102894.91
2022-10-11T09:13:51.421Z,102896.22
2022-10-11T09:16:36.033Z,102901.16
2022-10-11T09:19:30.265Z,102896.03
2022-10-11T09:22:12.078Z,102902.00
2022-10-11T09:25:05.719Z,102898.06
2022-10-11T09:28:02.891Z,102899.56
2022-10-11T09:30:30.223Z,102894.31
2022-10-11T09:33:12.234Z,102903.69
2022-10-11T09:35:46.322Z,102897.66
2022-10-11T09:38:31.306Z,102905.63
2022-10-11T09:41:05.974Z,102911.59
2022-10-11T09:43:32.469Z,102904.94
2022-10-11T09:45:58.988Z,102913.91
2022-10-11T09:48:32.999Z,102903.97
2022-10-11T09:51:04.907Z,102909.47
2022-10-11T09:53:51.447Z,102908.50
2022-10-11T09:56:18.100Z,102909.56
2022-10-11T09:58:44.798Z,102909.13
2022-10-11T10:01:23.160Z,102913.63
2022-10-11T10:04:08.442Z,102905.06
2022-10-11T10:06:35.323Z,102909.50
2022-10-11T10:09:25.371Z,102907.25
2022-10-11T10:11:53.211Z,102901.72
2022-10-11T10:14:23.886Z,102902.25
2022-10-11T10:17:00.647Z,102899.78
2022-10-11T10:19:27.484Z,102903.63
2022-10-11T10:21:56.323Z,102896.66
2022-10-11T10:24:41.126Z,102896.38
2022-10-11T10:27:10.560Z,102901.09
2022-10-11T10:29:37.726Z,102890.09
2022-10-11T10:32:14.994Z,102892.53
2022-10-11T10:34:58.377Z,102891.50
2022-10-11T10:37:41.653Z,102892.72
2022-10-11T10:40:22.267Z,102888.75
2022-10-11T10:42:50.218Z,102887.31
2022-10-11T10:45:21.471Z,102891.38
2022-10-11T10:47:54.290Z,102889.09
2022-10-11T10:50:30.575Z,102890.91
2022-10-11T10:53:23.961Z,102890.25
2022-10-11T10:56:05.590Z,102886.75
2022-10-11T10:58:56.491Z,102889.47
2022-10-11T11:01:25.009Z,102884.44
2022-10-11T11:04:18.756Z,102878.59
2022-10-11T11:06:51.088Z,102883.84
2022-10-11T11:09:30.900Z,102876.03
2022-10-11T11:12:12.515Z,102874.25
2022-10-11T11:14:51.026Z,102879.25
2022-10-11T11:17:29.591Z,102870.81
2022-10-11T11:20:33.588Z,102871.38
2022-10-11T11:23:35.126Z,102870.47
2022-10-11T11:26:42.003Z,102870.66
2022-10-11T11:29:17.472Z,102865.44
2022-10-11T11:32:15.869Z,102865.88
2022-10-11T11:34:48.021Z,102855.47
2022-10-11T11:37:37.258Z,102856.84
2022-10-11T11:40:18.122Z,102858.41
2022-10-11T11:42:50.666Z,102860.06
2022-10-11T11:45:31.290Z,102853.22
2022-10-11T11:48:10.356Z,102860.22
2022-10-11T11:50:40.643Z,102861.91
2022-10-11T11:53:32.470Z,102856.16
2022-10-11T11:56:15.264Z,102850.09
2022-10-11T11:58:52.870Z,102848.84
2022-10-11T12:01:41.413Z,102841.84
2022-10-11T12:04:30.020Z,102848.13
2022-10-11T12:07:17.970Z,102839.66
2022-10-11T12:09:50.745Z,102840.31
2022-10-11T12:12:38.149Z,102839.72
2022-10-11T12:15:23.331Z,102839.41
2022-10-11T12:17:56.119Z,102837.88
2022-10-11T12:20:28.808Z,102832.94
2022-10-11T12:22:59.939Z,102834.38
2022-10-11T12:25:26.334Z,102830.94
2022-10-11T12:27:56.015Z,102827.94
2022-10-11T12:31:04.045Z,102823.97
2022-10-11T12:33:30.669Z,102816.13
2022-10-11T12:36:04.137Z,102817.16
2022-10-11T12:38:39.892Z,102811.47
2022-10-11T12:41:09.311Z,102819.88
2022-10-11T12:44:12.907Z,102814.28
2022-10-11T12:46:51.208Z,102813.56
2022-10-11T12:49:32.269Z,102813.44
2022-10-11T12:52:17.641Z,102816.00
2022-10-11T12:54:59.418Z,102812.63
2022-10-11T12:57:50.870Z,102804.56
2022-10-11T13:00:23.621Z,102802.34
2022-10-11T13:02:50.433Z,102809.53
2022-10-11T13:05:20.898Z,102806.16
2022-10-11T13:07:48.370Z,102802.09
2022-10-11T13:10:28.752Z,102798.88
2022-10-11T13:12:59.515Z,102805.22
2022-10-11T13:15:26.543Z,102802.91
2022-10-11T13:17:59.170Z,102798.88
2022-10-11T13:20:28.746Z,102796.44
2022-10-11T13:22:56.731Z,102804.78
2022-10-11T13:25:26.275Z,102791.94
2022-10-11T13:27:56.178Z,102793.63
2022-10-11T13:30:25.907Z,102801.16
2022-10-11T13:32:53.283Z,102791.53
2022-10-11T13:35:29.255Z,102795.81
2022-10-11T13:37:56.095Z,102791.53
2022-10-11T13:40:23.629Z,102789.34
2022-10-11T13:42:52.138Z,102790.25
2022-10-11T13:45:21.628Z,102787.91
2022-10-11T13:47:49.705Z,102784.91
2022-10-11T13:50:16.164Z,102792.28
2022-10-11T13:53:06.874Z,102787.69
2022-10-11T13:55:49.826Z,102787.59
2022-10-11T13:58:30.218Z,102784.13
2022-10-11T14:00:59.760Z,102784.25
2022-10-11T14:03:47.463Z,102780.31
2022-10-11T14:06:14.117Z,102775.69
2022-10-11T14:08:51.780Z,102778.69
2022-10-11T14:11:36.063Z,102776.53
2022-10-11T14:14:34.252Z,102775.28
2022-10-11T14:17:06.621Z,102767.50
2022-10-11T14:19:33.032Z,102762.63
2022-10-11T14:21:59.518Z,102769.00
2022-10-11T14:24:25.957Z,102769.59
2022-10-11T14:26:56.370Z,102772.97
2022-10-11T14:29:34.598Z,102770.16
2022-10-11T14:32:31.778Z,102773.28
2022-10-11T14:34:58.379Z,102762.75
2022-10-11T14:37:25.544Z,102764.69
2022-10-11T14:39:52.380Z,102762.03
2022-10-11T14:42:19.148Z,102766.91
2022-10-11T14:44:45.677Z,102758.69
2022-10-11T14:47:16.827Z,102766.09
2022-10-11T14:49:43.447Z,102762.97
2022-10-11T14:52:13.733Z,102761.25
2022-10-11T14:54:41.176Z,102769.47
2022-10-11T14:57:08.015Z,102765.53
2022-10-11T14:59:37.026Z,102770.06
2022-10-11T15:02:06.075Z,102773.28
2022-10-11T15:04:33.316Z,102771.81
2022-10-11T15:07:00.164Z,102773.81
2022-10-11T15:09:26.710Z,102764.47
2022-10-11T15:11:54.889Z,102758.81
2022-10-11T15:14:25.255Z,102763.75
2022-10-11T15:16:52.356Z,102762.25
2022-10-11T15:19:22.085Z,102761.06
2022-10-11T15:22:45.886Z,102761.16
2022-10-11T15:25:12.362Z,102756.16
2022-10-11T15:27:38.800Z,102758.31
2022-10-11T15:30:31.523Z,102760.84
2022-10-11T15:32:58.039Z,102761.06
2022-10-11T15:35:26.148Z,102755.03
2022-10-11T15:37:54.830Z,102749.75
2022-10-11T15:40:25.207Z,102748.56
2022-10-11T15:42:53.793Z,102749.47
2022-10-11T15:45:21.351Z,102745.25
2022-10-11T15:47:48.585Z,102750.22
2022-10-11T15:50:37.472Z,102748.59
2022-10-11T15:53:08.412Z,102744.75
2022-10-11T15:55:38.148Z,102740.91
2022-10-11T15:58:05.049Z,102742.81
2022-10-11T16:00:31.586Z,102741.47
2022-10-11T16:02:59.094Z,102737.72
2022-10-11T16:05:27.788Z,102742.50
2022-10-11T16:07:54.909Z,102737.31
2022-10-11T16:10:21.818Z,102732.34
2022-10-11T16:12:48.890Z,102734.47
2022-10-11T16:15:15.520Z,102737.59
2022-10-11T16:17:41.958Z,102733.00
2022-10-11T16:20:09.221Z,102735.91
2022-10-11T16:22:36.571Z,102739.06
2022-10-11T16:25:04.457Z,102740.38
2022-10-11T16:27:31.051Z,102737.38
2022-10-11T16:29:57.833Z,102741.47
2022-10-11T16:32:25.491Z,102738.28
2022-10-11T16:34:51.922Z,102738.13
2022-10-11T16:37:18.685Z,102740.41
2022-10-11T16:39:45.833Z,102748.16
2022-10-11T16:42:12.287Z,102747.16
2022-10-11T16:44:39.376Z,102747.81
2022-10-11T16:47:06.856Z,102752.25
2022-10-11T16:49:33.997Z,102749.19
2022-10-11T16:52:02.466Z,102749.00
2022-10-11T16:54:30.208Z,102759.34
2022-10-11T16:56:58.362Z,102762.81
2022-10-11T16:59:24.904Z,102760.78
2022-10-11T17:01:51.544Z,102757.31
2022-10-11T17:04:18.274Z,102755.91
2022-10-11T17:06:45.078Z,102762.41
2022-10-11T17:09:11.647Z,102747.16
2022-10-11T17:11:38.479Z,102759.53
2022-10-11T17:14:05.915Z,102757.50
2022-10-11T17:16:32.729Z,102755.47
2022-10-11T17:18:59.199Z,102764.19
2022-10-11T17:21:25.771Z,102761.94
2022-10-11T17:23:52.443Z,102756.03
2022-10-11T17:26:26.223Z,102762.75
2022-10-11T17:28:54.977Z,102760.28
2022-10-11T17:31:21.962Z,102767.16
2022-10-11T17:33:48.858Z,102765.72
2022-10-11T17:36:23.013Z,102763.91
2022-10-11T17:38:50.594Z,102765.06
2022-10-11T17:41:17.831Z,102767.47
2022-10-11T17:43:44.516Z,102762.97
2022-10-11T17:46:13.585Z,102762.38
2022-10-11T17:48:40.526Z,102760.13
2022-10-11T17:51:09.691Z,102755.44
2022-10-11T17:53:36.999Z,102766.16
2022-10-11T17:56:07.835Z,102763.47
2022-10-11T17:58:34.954Z,102763.06
2022-10-11T18:01:14.429Z,102764.22
2022-10-11T18:03:42.575Z,102755.25
2022-10-11T18:06:13.558Z,102757.03
2022-10-11T18:08:40.968Z,102769.19
2022-10-11T18:11:13.526Z,102762.69
2022-10-11T18:13:42.857Z,102755.97
2022-10-11T18:16:10.759Z,102763.81
2022-10-11T18:18:37.912Z,102751.41
2022-10-11T18:21:04.447Z,102758.25
2022-10-11T18:23:30.985Z,102760.66
2022-10-11T18:25:57.396Z,102767.50
2022-10-11T18:28:24.051Z,102770.53
2022-10-11T18:30:50.702Z,102766.44
2022-10-11T18:33:17.569Z,102762.38
2022-10-11T18:35:44.002Z,102762.75
2022-10-11T18:38:10.507Z,102765.94
2022-10-11T18:40:41.320Z,102767.13
2022-10-11T18:43:11.265Z,102765.88
2022-10-11T18:45:37.753Z,102769.03
2022-10-11T18:48:04.401Z,102761.06
2022-10-11T18:50:34.877Z,102763.28
2022-10-11T18:53:02.247Z,102757.94
2022-10-11T18:55:28.740Z,102761.13
2022-10-11T18:57:55.189Z,102757.22
2022-10-11T19:00:40.673Z,102753.34
2022-10-11T19:03:07.854Z,102753.09
2022-10-11T19:05:34.329Z,102755.28
2022-10-11T19:08:00.836Z,102754.84
2022-10-11T19:10:27.327Z,102755.94
2022-10-11T19:12:53.829Z,102758.69
2022-10-11T19:15:20.263Z,102754.53
2022-10-11T19:17:46.711Z,102749.19
2022-10-11T19:20:13.410Z,102758.09
2022-10-11T19:22:39.836Z,102753.38
2022-10-11T19:25:06.656Z,102749.47
2022-10-11T19:27:33.113Z,102743.94
2022-10-11T19:30:00.404Z,102751.38
2022-10-11T19:32:26.998Z,102748.66
2022-10-11T19:34:53.429Z,102746.75
2022-10-11T19:37:19.882Z,102743.84
2022-10-11T19:39:46.297Z,102749.81
2022-10-11T19:42:12.762Z,102748.53
2022-10-11T19:44:39.779Z,102749.09
2022-10-11T19:47:06.620Z,102744.38
2022-10-11T19:49:34.245Z,102743.47
2022-10-11T19:52:01.229Z,102742.84
2022-10-11T19:54:28.286Z,102740.56
2022-10-11T19:56:54.781Z,102737.66
2022-10-11T19:59:21.462Z,102734.38
2022-10-11T20:01:52.448Z,102736.38
2022-10-11T20:04:47.198Z,102733.47
2022-10-11T20:07:06.216Z,102735.16
2022-10-11T20:09:32.683Z,102736.09
2022-10-11T20:11:59.262Z,102736.78
2022-10-11T20:14:26.008Z,102737.94
2022-10-11T20:16:52.593Z,102743.56
2022-10-11T20:19:19.474Z,102742.63
2022-10-11T20:21:46.417Z,102751.50
2022-10-11T20:24:12.967Z,102743.31
2022-10-11T20:26:40.025Z,102748.09
2022-10-11T20:29:06.893Z,102755.53
2022-10-11T20:31:38.136Z,102751.81
2022-10-11T20:34:07.173Z,102751.38
2022-10-11T20:36:39.228Z,102754.53
2022-10-11T20:39:06.622Z,102751.72
2022-10-11T20:41:39.847Z,102753.72
2022-10-11T20:44:10.718Z,102755.03
2022-10-11T20:46:38.779Z,102754.75
2022-10-11T20:49:11.308Z,102759.88
2022-10-11T20:51:41.441Z,102756.44
2022-10-11T20:54:08.292Z,102750.91
2022-10-11T20:56:35.606Z,102753.84
2022-10-11T20:59:02.204Z,102757.13
2022-10-11T21:01:34.551Z,102746.16
2022-10-11T21:04:02.480Z,102752.91
2022-10-11T21:06:30.643Z,102749.31
2022-10-11T21:08:58.981Z,102751.31
2022-10-11T21:11:27.282Z,102750.56
2022-10-11T21:13:56.187Z,102753.81
2022-10-11T21:16:22.951Z,102753.34
2022-10-11T21:18:57.803Z,102749.09
2022-10-11T21:21:25.412Z,102751.06
2022-10-11T21:24:00.106Z,102749.59
2022-10-11T21:26:27.581Z,102746.81
2022-10-11T21:28:54.090Z,102751.59
2022-10-11T21:31:21.630Z,102757.00
2022-10-11T21:33:48.444Z,102754.22
2022-10-11T21:36:20.687Z,102751.81
2022-10-11T21:38:48.314Z,102751.50
2022-10-11T21:41:17.511Z,102753.97
2022-10-11T21:43:44.378Z,102756.75
2022-10-11T21:46:13.877Z,102755.75
2022-10-11T21:48:40.799Z,102753.47
2022-10-11T21:51:07.667Z,102748.50
2022-10-11T21:53:34.293Z,102746.88
2022-10-11T21:56:01.543Z,102750.94
2022-10-11T21:58:28.632Z,102746.84
2022-10-11T22:00:55.145Z,102759.94
2022-10-11T22:03:21.673Z,102758.59
2022-10-11T22:05:48.397Z,102761.88
2022-10-11T22:08:15.114Z,102764.81
2022-10-11T22:10:52.082Z,102755.63
2022-10-11T22:13:18.523Z,102753.63
2022-10-11T22:15:45.000Z,102760.50
2022-10-11T22:18:11.698Z,102761.78
2022-10-11T22:20:38.155Z,102751.78
2022-10-11T22:23:04.607Z,102749.31
2022-10-11T22:25:30.998Z,102750.66
2022-10-11T22:27:57.459Z,102747.38
2022-10-11T22:30:23.899Z,102752.28
2022-10-11T22:32:52.007Z,102752.94
2022-10-11T22:35:19.763Z,102752.28
2022-10-11T22:37:46.226Z,102744.75
2022-10-11T22:40:12.680Z,102746.78
2022-10-11T22:42:39.160Z,102744.34
2022-10-11T22:45:05.978Z,102749.75
2022-10-11T22:47:32.448Z,102748.13
2022-10-11T22:49:58.918Z,102745.19
2022-10-11T22:52:25.369Z,102745.53
2022-10-11T22:54:51.993Z,102749.78
2022-10-11T22:57:18.544Z,102745.19
2022-10-11T22:59:45.060Z,102744.88
2022-10-11T23:02:11.609Z,102738.97
2022-10-11T23:04:38.030Z,102744.88
2022-10-11T23:07:05.197Z,102742.72
2022-10-11T23:09:31.765Z,102744.19
2022-10-11T23:11:59.308Z,102746.16
2022-10-11T23:14:25.775Z,102739.13
2022-10-11T23:16:52.605Z,102740.28
2022-10-11T23:19:19.258Z,102739.31
2022-10-11T23:21:46.607Z,102732.78
2022-10-11T23:24:13.253Z,102733.09
2022-10-11T23:26:39.703Z,102733.63
2022-10-11T23:29:06.227Z,102725.28
2022-10-11T23:31:32.672Z,102730.22
2022-10-11T23:33:59.125Z,102718.44
2022-10-11T23:36:26.086Z,102720.56
2022-10-11T23:38:58.278Z,102720.06
2022-10-11T23:41:27.382Z,102719.25
2022-10-11T23:43:53.921Z,102714.00
2022-10-11T23:46:20.406Z,102716.16
2022-10-11T23:48:47.029Z,102719.91
2022-10-11T23:51:14.009Z,102717.47
2022-10-11T23:53:41.550Z,102717.63
2022-10-11T23:56:09.761Z,102719.75
2022-10-11T23:58:36.504Z,102718.13
